LFRK - LFAT

Guest
Details From LFRK - Caen Carpiquet
To LFAT - Le Touquet Paris Plage
Flight Number -
Tags generated
Created
Modified
Stats Distance 114 nm / 211 km
Max Altitude 10,000 ft / 3,048 m
Waypoints 3
Social Downloads 0
Likes 0
Share VATSIM

Download

Looking for another format? Having issues loading an existing format? Contact us
Advertisement - Login to hide

Notes

Basic altitude profile: - Ascent Rate: 1600ft/min - Ascent Speed: 260kts - Cruise Altitude: 10000ft - Cruise Speed: 250kts - Descent Rate: 1500ft/min - Descent Speed: 250kts

Route

LFRK VEULE LFAT

ID Type Via Altitude Latitude Longitude Leg Dist Tot Dist Heading (true) Name
O LFRK APT - 0 ft / 0 m 49.17512˚ -0.45194˚ - 0 nm - Caen Carpiquet
VEULE FIX - 10,000 ft / 3,048 m 49.85667˚ 0.62000˚ 58 nm 58 nm 45° / 46° -
O LFAT APT - 0 ft / 0 m 50.51586˚ 1.62273˚ 55 nm 113 nm 44° / 45° Le Touquet Paris Plage

Altitude Profile

LFRK

Details ICAO LFRK (CFR)
Name Caen Carpiquet
Region France
Timezone Europe/Paris (UTC+1.0)
Stats Elevation 256 ft / 78 m (AMSL)
Location 49.175122° -0.451941°
Runways 2
Magnetic Variation 0.464° W

METAR

LFRK 051600Z AUTO 10003KT CAVOK 09/06 Q1022 NOSIG

Decode

TAF

Not found

Departure Runways

ID Width Length Bearing (true) Bearing (mag) Surface Threshold Offset Overrun Length
06 98 ft / 30 m 3,880 ft / 1,183 m 51.68° 52.14° Asphalt 0 ft / 0 m 0 ft / 0 m
13 148 ft / 45 m 6,215 ft / 1,894 m 125.34° 125.80° Asphalt 984 ft / 300 m 0 ft / 0 m
24 98 ft / 30 m 3,880 ft / 1,183 m 231.69° 232.15° Asphalt 0 ft / 0 m 0 ft / 0 m
31 148 ft / 45 m 6,215 ft / 1,894 m 305.36° 305.82° Asphalt 0 ft / 0 m 0 ft / 0 m

LFAT

Details ICAO LFAT (LTQ)
Name Le Touquet Paris Plage
Region France
Timezone Europe/Paris (UTC+1.0)
Stats Elevation 35 ft / 11 m (AMSL)
Location 50.515857° 1.622729°
Runways 2
Magnetic Variation 0.091° E

METAR

LFAT 051600Z AUTO 13007KT CAVOK 06/02 Q1025 NOSIG

Decode

TAF

Not found

Destination Runways

ID Width Length Bearing (true) Bearing (mag) Surface Threshold Offset Overrun Length
07 120 ft / 37 m 1,949 ft / 594 m 60.65° 60.56° Asphalt 0 ft / 0 m 0 ft / 0 m
14 131 ft / 40 m 6,050 ft / 1,844 m 133.54° 133.45° Asphalt 0 ft / 0 m 0 ft / 0 m
25 120 ft / 37 m 1,949 ft / 594 m 240.65° 240.56° Asphalt 750 ft / 229 m 0 ft / 0 m
32 131 ft / 40 m 6,050 ft / 1,844 m 313.56° 313.47° Asphalt 492 ft / 150 m 0 ft / 0 m

Approach Navaids

Runway Type Ident Frequency Range Bearing (true) Bearing (mag) Slope Elevation
14 Localiser LT 110.15 MHz 27 nm / 50 km 134.00° 133.91° - 35 ft / 11 m (AMSL)
14 Glidescope LT 110.15 MHz 27 nm / 50 km 134.00° 133.91° 3.00° 35 ft / 11 m (AMSL)
14 DME LT 110.15 MHz 27 nm / 50 km - - - 35 ft / 11 m (AMSL)

Popular Alternatives